Childress Municipal Airport
KCDS : now visible

Airfield :











YOU CAN JOIN US ON...

 
LOGIN :

Register | Disclaimer

   EN    FR    IT 

 









Legend :    VFR   Marginal VFR   IFR   Intensive IFR   Very Intensive IFR
Visi :
Ceiling :
>= 8 km
>= 3000ft
5 to 8 km
1000 to 3000 ft
1500m to 5 km
500 to 1000 ft
800 to 1500m
200 to 500 ft
< 800m
< 200 ft
Symbols :   Thunderstorms  Fog  Heavy snow  Heavy precipitations  Wind > 20 kt







- Airport Elevation : 1954 ft


KCDS - Childress Municipal

CURRENT METAR :
  • 210353Z AUTO 15009KT 10SM FEW006 BKN070 BKN085 21/20 A2998 RMK AO2 LTG DSNT NW-NE SLP129 T02110200

EXPIRED METARs :
  • 210300Z AUTO 14008KT 10SM FEW006 BKN120 22/21 A2996 RMK AO2 T02170211
  • 210253Z AUTO 14007KT 10SM SCT120 22/21 A2996 RMK AO2 SLP123 60004 T02170211 53016
  • 210153Z AUTO 14013KT 10SM CLR 22/21 A2991 RMK AO2 SLP108 T02170211

TAF KCDS
Valid from the 21 at 02:00 until the 22 at 00:00 UTC


210210Z 2102/2124 13011KT P6SM VCTS SCT015 BKN040CB BKN100
FM211000 18011KT P6SM SCT015 SCT040 BKN100
No reported NOTAMs for that airfield.



MET'MAP, your aeronautical weather chart ! - Copyright ORBIFLY December 2007 - Disclaimer

ORBIFLY MET'MAP TEAM :

Programming & Development : Alexandra Zaïnal
Concept & Development : Baudouin d'Aumeries
Co-Development & Prog : Marc-Olivier Méhu
Technical & hardware support : Manuel Goepfert

Contact : metmap@orbifly.com




SOURCES & CREDITS :

   NOAA       Earth
Advisory